Time;durP1;ratioP1;P1;durP2;ratioP2;P2;SDS_P1;SDS_P2;PMS_P1;PMS_P2;Temp;Humidity;BMP_temperature;BMP_pressure;BME280_temperature;BME280_humidity;BME280_pressure;Samples;Min_cycle;Max_cycle;Signal;HPM_P1;HPM_P2
2023/12/30 00:01:45;;;;;;;15.13;2.20;;;8.50;99.90;;;;;;4952164;28;20431;-74
2023/12/30 00:04:11;;;;;;;10.93;2.10;;;8.50;99.90;;;;;;4948408;28;20078;-74
2023/12/30 00:06:36;;;;;;;9.05;1.77;;;8.50;99.90;;;;;;4947404;29;20054;-74
2023/12/30 00:09:02;;;;;;;15.95;2.30;;;8.50;99.90;;;;;;4944133;28;20111;-74
2023/12/30 00:11:28;;;;;;;11.63;2.03;;;8.50;99.90;;;;;;4947654;28;20031;-74
2023/12/30 00:13:53;;;;;;;14.13;2.33;;;8.50;99.90;;;;;;4945722;28;20061;-74
2023/12/30 00:16:19;;;;;;;14.02;2.25;;;8.40;99.90;;;;;;4942349;28;20124;-74
2023/12/30 00:18:45;;;;;;;12.30;1.88;;;8.40;99.90;;;;;;4951570;28;20027;-74
2023/12/30 00:21:10;;;;;;;10.65;1.80;;;8.40;99.90;;;;;;4950488;28;20027;-74
2023/12/30 00:23:37;;;;;;;11.52;2.72;;;8.40;99.90;;;;;;4950793;28;20110;-74
2023/12/30 00:26:03;;;;;;;12.13;1.50;;;8.40;99.90;;;;;;4950619;29;20015;-74
2023/12/30 00:28:28;;;;;;;18.13;2.08;;;8.40;99.90;;;;;;4951393;28;20052;-74
2023/12/30 00:30:54;;;;;;;12.85;1.75;;;8.40;99.90;;;;;;4950837;28;20483;-74
2023/12/30 00:33:20;;;;;;;10.45;1.77;;;8.40;99.90;;;;;;4951184;29;20033;-74
2023/12/30 00:35:45;;;;;;;12.95;2.17;;;8.40;99.90;;;;;;4943605;28;20024;-74
2023/12/30 00:38:11;;;;;;;10.00;1.90;;;8.30;99.90;;;;;;4951432;28;20141;-74
2023/12/30 00:40:37;;;;;;;15.00;2.00;;;8.30;99.90;;;;;;4950330;28;20487;-73
2023/12/30 00:43:03;;;;;;;11.57;1.63;;;8.30;99.90;;;;;;4950572;28;20023;-73
2023/12/30 00:45:28;;;;;;;16.73;1.80;;;8.30;99.90;;;;;;4950394;28;20031;-73
2023/12/30 00:47:56;;;;;;;12.57;2.05;;;8.30;99.90;;;;;;4950265;28;20384;-73
2023/12/30 00:50:21;;;;;;;11.98;1.73;;;8.30;99.90;;;;;;4949990;28;20396;-74
2023/12/30 00:52:47;;;;;;;16.38;2.08;;;8.40;99.90;;;;;;4950154;28;20024;-73
2023/12/30 00:55:12;;;;;;;13.25;1.90;;;8.30;99.90;;;;;;4949556;28;20034;-74
2023/12/30 00:57:38;;;;;;;13.40;2.10;;;8.30;99.90;;;;;;4948289;28;20035;-74
2023/12/30 01:00:04;;;;;;;12.38;1.75;;;8.30;99.90;;;;;;4947242;28;20335;-74
2023/12/30 01:02:30;;;;;;;12.23;1.92;;;8.30;99.90;;;;;;4949974;28;20028;-74
2023/12/30 01:04:55;;;;;;;15.57;2.08;;;8.30;99.90;;;;;;4949657;28;20020;-74
2023/12/30 01:07:21;;;;;;;11.65;1.60;;;8.30;99.90;;;;;;4950531;29;20031;-74
2023/12/30 01:09:46;;;;;;;16.92;2.22;;;8.30;99.90;;;;;;4950136;28;20454;-74
2023/12/30 01:12:12;;;;;;;9.60;2.10;;;8.30;99.90;;;;;;4948307;28;20024;-74
2023/12/30 01:14:38;;;;;;;12.00;1.55;;;8.20;99.90;;;;;;4944794;28;20435;-74
2023/12/30 01:17:03;;;;;;;9.30;1.65;;;8.30;99.90;;;;;;4949639;29;20079;-74
2023/12/30 01:19:29;;;;;;;13.48;2.22;;;8.30;99.90;;;;;;4949728;28;20355;-74
2023/12/30 01:21:54;;;;;;;9.75;1.60;;;8.30;99.90;;;;;;4949348;28;20031;-74
2023/12/30 01:24:20;;;;;;;13.60;2.60;;;8.30;99.90;;;;;;4948435;28;20609;-73
2023/12/30 01:26:46;;;;;;;11.05;1.90;;;8.30;99.90;;;;;;4950087;28;20032;-74
2023/12/30 01:29:11;;;;;;;11.57;1.90;;;8.30;99.90;;;;;;4949318;28;20304;-73
2023/12/30 01:31:37;;;;;;;11.25;1.80;;;8.30;99.90;;;;;;4945938;28;20031;-74
2023/12/30 01:34:02;;;;;;;12.88;1.83;;;8.30;99.90;;;;;;4949595;29;20034;-74
2023/12/30 01:36:28;;;;;;;10.95;1.77;;;8.20;99.90;;;;;;4949374;28;20063;-74
2023/12/30 01:38:54;;;;;;;15.27;2.15;;;8.30;99.90;;;;;;4949578;28;20358;-74
2023/12/30 01:41:19;;;;;;;14.80;1.50;;;8.30;99.90;;;;;;4949679;28;20031;-74
2023/12/30 01:43:45;;;;;;;13.15;2.00;;;8.30;99.90;;;;;;4947257;28;20388;-74
2023/12/30 01:46:12;;;;;;;11.23;1.70;;;8.30;99.90;;;;;;4947062;28;20403;-73
2023/12/30 01:48:38;;;;;;;13.75;2.20;;;8.20;99.90;;;;;;4949271;28;20035;-74
2023/12/30 01:51:07;;;;;;;10.50;1.75;;;8.30;99.90;;;;;;4948942;28;20042;-74
2023/12/30 01:53:38;;;;;;;16.92;2.53;;;8.20;99.90;;;;;;4946684;28;20028;-74
2023/12/30 01:56:04;;;;;;;13.77;1.90;;;8.20;99.90;;;;;;4938821;28;20106;-74
2023/12/30 01:58:30;;;;;;;11.38;1.80;;;8.30;99.90;;;;;;4949554;28;20028;-73
2023/12/30 02:00:56;;;;;;;10.75;2.10;;;8.30;99.90;;;;;;4941456;28;20068;-74
2023/12/30 02:03:22;;;;;;;17.42;2.30;;;8.30;99.90;;;;;;5031799;28;20032;-74
2023/12/30 02:05:48;;;;;;;11.45;1.90;;;8.20;99.90;;;;;;4933182;28;20023;-74
2023/12/30 02:08:15;;;;;;;12.07;1.95;;;8.20;99.90;;;;;;4939930;28;20058;-74
2023/12/30 02:10:40;;;;;;;16.88;2.35;;;8.20;99.90;;;;;;4949183;28;20031;-74
2023/12/30 02:13:07;;;;;;;11.85;1.80;;;8.20;99.90;;;;;;4947871;28;20707;-74
2023/12/30 02:15:33;;;;;;;10.10;1.80;;;8.20;99.90;;;;;;4949313;28;20379;-76
2023/12/30 02:18:00;;;;;;;9.85;1.60;;;8.20;99.90;;;;;;4935688;28;20035;-74
2023/12/30 02:20:26;;;;;;;14.38;1.75;;;8.20;99.90;;;;;;4947378;28;20423;-74
2023/12/30 02:22:52;;;;;;;14.25;1.58;;;8.20;99.90;;;;;;4949768;28;20019;-74
2023/12/30 02:25:17;;;;;;;13.73;2.00;;;8.20;99.90;;;;;;4951168;28;20058;-74
2023/12/30 02:27:43;;;;;;;20.73;2.28;;;8.20;99.90;;;;;;4946604;28;20051;-74
2023/12/30 02:30:10;;;;;;;11.70;1.98;;;8.20;99.90;;;;;;4947036;28;20032;-74
2023/12/30 02:32:35;;;;;;;19.73;2.65;;;8.20;99.90;;;;;;4948702;29;20028;-73
2023/12/30 02:35:01;;;;;;;13.18;2.70;;;8.20;99.90;;;;;;4945866;28;20058;-74
2023/12/30 02:37:27;;;;;;;13.82;2.60;;;8.20;99.90;;;;;;4941355;28;20043;-73
2023/12/30 02:39:52;;;;;;;16.25;2.92;;;8.20;99.90;;;;;;4941406;28;20059;-74
2023/12/30 02:42:18;;;;;;;13.50;2.15;;;8.20;99.90;;;;;;4941456;28;20066;-73
2023/12/30 02:44:44;;;;;;;12.77;2.13;;;8.20;99.90;;;;;;4937394;28;20055;-74
2023/12/30 02:47:09;;;;;;;12.38;1.75;;;8.20;99.90;;;;;;4949393;28;20465;-73
2023/12/30 02:49:43;;;;;;;10.05;1.70;;;8.10;99.90;;;;;;4937333;28;20073;-74
2023/12/30 02:52:08;;;;;;;12.32;1.88;;;8.20;99.90;;;;;;4946156;28;20487;-74
2023/12/30 02:54:37;;;;;;;11.73;1.65;;;8.10;99.90;;;;;;4947881;28;20026;-74
2023/12/30 02:57:04;;;;;;;12.80;1.80;;;8.20;99.90;;;;;;4947088;28;20460;-74
2023/12/30 02:59:30;;;;;;;12.75;2.05;;;8.20;99.90;;;;;;4948337;28;20028;-73
2023/12/30 03:01:56;;;;;;;9.90;1.52;;;8.20;99.90;;;;;;4947527;28;20027;-74
2023/12/30 03:04:22;;;;;;;15.15;2.20;;;8.20;99.90;;;;;;4933460;28;20035;-73
2023/12/30 03:06:48;;;;;;;12.02;1.80;;;8.20;99.90;;;;;;4942904;28;20038;-74
2023/12/30 03:09:14;;;;;;;11.82;1.58;;;8.20;99.90;;;;;;4939717;28;20403;-74
2023/12/30 03:11:39;;;;;;;12.00;1.73;;;8.20;99.90;;;;;;4940887;28;20023;-73
2023/12/30 03:14:05;;;;;;;13.10;1.83;;;8.20;99.90;;;;;;4942179;28;20043;-74
2023/12/30 03:16:31;;;;;;;11.45;2.00;;;8.20;99.90;;;;;;4948908;28;20061;-74
2023/12/30 03:18:57;;;;;;;17.67;2.08;;;8.20;99.90;;;;;;4950265;28;20023;-74
2023/12/30 03:21:23;;;;;;;14.90;1.83;;;8.30;99.90;;;;;;4947501;28;20446;-73
2023/12/30 03:23:48;;;;;;;10.80;1.92;;;8.20;99.90;;;;;;4951415;28;20107;-74
2023/12/30 03:26:14;;;;;;;15.02;1.75;;;8.30;99.90;;;;;;4944129;28;20415;-74
2023/12/30 03:28:39;;;;;;;15.00;1.95;;;8.30;99.90;;;;;;4951285;28;20031;-73
2023/12/30 03:31:07;;;;;;;12.10;1.77;;;8.20;99.90;;;;;;4951396;29;20020;-74
2023/12/30 03:33:32;;;;;;;15.82;2.25;;;8.20;99.90;;;;;;4948043;28;20023;-74
2023/12/30 03:35:58;;;;;;;14.30;2.00;;;8.20;99.90;;;;;;4941722;28;20491;-74
2023/12/30 03:38:24;;;;;;;9.82;1.77;;;8.20;99.90;;;;;;4942567;28;20101;-74
2023/12/30 03:40:50;;;;;;;14.30;1.90;;;8.20;99.90;;;;;;4939403;28;20448;-74
2023/12/30 03:43:16;;;;;;;11.60;1.80;;;8.20;99.90;;;;;;4951389;28;20435;-74
2023/12/30 03:45:42;;;;;;;11.88;2.25;;;8.20;99.90;;;;;;4947285;28;20024;-73
2023/12/30 03:48:08;;;;;;;15.73;1.80;;;8.20;99.90;;;;;;4947372;28;20472;-73
2023/12/30 03:50:33;;;;;;;10.25;1.63;;;8.20;99.90;;;;;;4950862;29;20028;-74
2023/12/30 03:52:59;;;;;;;14.57;2.13;;;8.20;99.90;;;;;;4951302;28;20023;-73
2023/12/30 03:55:24;;;;;;;11.63;1.67;;;8.20;99.90;;;;;;4940920;28;20027;-74
2023/12/30 03:57:50;;;;;;;14.43;1.75;;;8.20;99.90;;;;;;4938112;28;20483;-74
2023/12/30 04:00:16;;;;;;;9.57;1.98;;;8.10;99.90;;;;;;4950487;28;20035;-74
2023/12/30 04:02:42;;;;;;;11.18;2.05;;;8.10;99.90;;;;;;4948630;28;20058;-74
2023/12/30 04:05:07;;;;;;;11.40;2.03;;;8.10;99.90;;;;;;4948401;28;20020;-74
2023/12/30 04:07:33;;;;;;;13.35;1.88;;;8.10;99.90;;;;;;4951133;28;20045;-74
2023/12/30 04:09:59;;;;;;;9.55;1.77;;;8.20;99.90;;;;;;4950804;28;20035;-74
2023/12/30 04:12:24;;;;;;;18.02;1.73;;;8.10;99.90;;;;;;4951028;28;20102;-74
2023/12/30 04:14:51;;;;;;;12.43;1.30;;;8.10;99.90;;;;;;4950072;29;20463;-74
2023/12/30 04:17:16;;;;;;;15.88;2.03;;;8.10;99.90;;;;;;4950615;28;20059;-73
2023/12/30 04:19:42;;;;;;;13.32;2.17;;;8.10;99.90;;;;;;4950828;29;20069;-74
2023/12/30 04:22:07;;;;;;;8.85;1.55;;;8.10;99.90;;;;;;4950487;28;20549;-74
2023/12/30 04:24:33;;;;;;;12.75;1.73;;;8.10;99.90;;;;;;4950273;28;20027;-74
2023/12/30 04:26:58;;;;;;;10.23;1.95;;;8.10;99.90;;;;;;4949174;28;20252;-74
2023/12/30 04:29:26;;;;;;;11.98;2.25;;;8.10;99.90;;;;;;4949731;28;20028;-74
2023/12/30 04:31:51;;;;;;;12.60;1.70;;;8.10;99.90;;;;;;4950522;28;20020;-74
2023/12/30 04:34:17;;;;;;;13.63;1.85;;;8.10;99.90;;;;;;4947997;28;20020;-74
2023/12/30 04:36:43;;;;;;;9.57;1.52;;;8.10;99.90;;;;;;4949930;28;20492;-74
2023/12/30 04:39:08;;;;;;;7.43;1.50;;;8.10;99.90;;;;;;4950387;28;20102;-74
2023/12/30 04:41:35;;;;;;;9.90;1.40;;;8.10;99.90;;;;;;4947501;28;20027;-74
2023/12/30 04:44:01;;;;;;;10.18;1.63;;;8.10;99.90;;;;;;4948999;28;20055;-73
2023/12/30 04:46:27;;;;;;;6.93;1.42;;;8.20;99.90;;;;;;4950994;28;20058;-74
2023/12/30 04:48:54;;;;;;;11.68;1.48;;;8.20;99.90;;;;;;4950215;28;20105;-73
2023/12/30 04:51:20;;;;;;;11.43;1.88;;;8.20;99.90;;;;;;4941926;28;20019;-74
2023/12/30 04:53:46;;;;;;;28.05;2.40;;;8.20;99.90;;;;;;4949088;28;20035;-74
2023/12/30 04:56:17;;;;;;;9.40;1.80;;;8.10;99.90;;;;;;4949450;28;20023;-74
2023/12/30 04:58:43;;;;;;;11.63;1.50;;;8.10;99.90;;;;;;4950444;28;20115;-74
2023/12/30 05:01:09;;;;;;;12.75;1.75;;;8.10;99.90;;;;;;5015501;28;20396;-74
2023/12/30 05:03:36;;;;;;;14.55;2.00;;;8.10;99.90;;;;;;4950051;28;20431;-74
2023/12/30 05:06:02;;;;;;;7.97;1.65;;;8.10;99.90;;;;;;4945717;28;20099;-74
2023/12/30 05:08:28;;;;;;;10.68;1.80;;;8.10;99.90;;;;;;4950493;29;20093;-73
2023/12/30 05:10:54;;;;;;;12.75;1.85;;;8.10;99.90;;;;;;4949931;28;20030;-73
2023/12/30 05:13:20;;;;;;;16.13;2.25;;;8.10;99.90;;;;;;4950537;28;20098;-74
2023/12/30 05:15:45;;;;;;;10.07;1.95;;;8.10;99.90;;;;;;4949534;28;20543;-74
2023/12/30 05:18:11;;;;;;;9.95;1.52;;;8.10;99.90;;;;;;4947338;28;20528;-74
2023/12/30 05:20:37;;;;;;;11.43;1.70;;;8.10;99.90;;;;;;4945739;28;20058;-74
2023/12/30 05:23:03;;;;;;;9.20;1.52;;;8.10;99.90;;;;;;4946521;28;20023;-74
2023/12/30 05:25:29;;;;;;;16.67;1.85;;;8.10;99.90;;;;;;4947779;28;20015;-74
2023/12/30 05:27:55;;;;;;;12.02;1.80;;;8.10;99.90;;;;;;4944982;28;20038;-74
2023/12/30 05:30:21;;;;;;;17.15;2.03;;;8.10;99.90;;;;;;4950170;29;20028;-74
2023/12/30 05:32:47;;;;;;;12.43;1.92;;;8.10;99.90;;;;;;4947384;28;20024;-74
2023/12/30 05:35:13;;;;;;;8.98;1.50;;;8.10;99.90;;;;;;5015546;28;20100;-74
2023/12/30 05:37:38;;;;;;;11.18;1.73;;;8.10;99.90;;;;;;4949372;29;20102;-74
2023/12/30 05:40:08;;;;;;;10.60;1.85;;;8.10;99.90;;;;;;4944073;28;20015;-74
2023/12/30 05:42:34;;;;;;;10.20;1.67;;;8.10;99.90;;;;;;4949295;28;20054;-74
2023/12/30 05:45:00;;;;;;;11.95;1.80;;;8.10;99.90;;;;;;4942582;28;20105;-73
2023/12/30 05:47:25;;;;;;;8.88;1.45;;;8.10;99.90;;;;;;4949444;28;20027;-74
2023/12/30 05:49:51;;;;;;;11.93;1.52;;;8.00;99.90;;;;;;4949774;28;20027;-74
2023/12/30 05:52:16;;;;;;;12.40;1.90;;;8.00;99.90;;;;;;4949853;28;20039;-74
2023/12/30 05:54:44;;;;;;;14.50;2.15;;;8.10;99.90;;;;;;4948712;29;20479;-74
2023/12/30 05:57:09;;;;;;;8.90;1.60;;;8.10;99.90;;;;;;4946551;28;20111;-74
2023/12/30 05:59:35;;;;;;;10.55;1.40;;;8.00;99.90;;;;;;4946196;28;20575;-74
2023/12/30 06:02:01;;;;;;;6.05;1.35;;;8.00;99.90;;;;;;4943551;28;20027;-74
2023/12/30 06:04:26;;;;;;;12.50;1.83;;;8.00;99.90;;;;;;4945673;28;20023;-74
2023/12/30 06:06:52;;;;;;;13.35;1.90;;;8.00;99.90;;;;;;4949061;28;20063;-74
2023/12/30 06:09:18;;;;;;;14.75;1.77;;;8.00;99.90;;;;;;4972473;28;20043;-74
2023/12/30 06:11:43;;;;;;;10.27;1.60;;;8.00;99.90;;;;;;4942788;28;20015;-74
2023/12/30 06:14:09;;;;;;;10.32;2.00;;;8.00;99.90;;;;;;4948874;28;20019;-74
2023/12/30 06:16:35;;;;;;;12.48;1.70;;;8.00;99.90;;;;;;4948893;28;20515;-74
2023/12/30 06:19:00;;;;;;;9.82;1.40;;;8.00;99.90;;;;;;4947949;28;20472;-74
2023/12/30 06:21:26;;;;;;;11.52;1.50;;;8.00;99.90;;;;;;4948371;28;20026;-74
2023/12/30 06:23:51;;;;;;;11.88;1.80;;;8.00;99.90;;;;;;4943646;28;20035;-74
2023/12/30 06:26:17;;;;;;;8.00;1.50;;;8.00;99.90;;;;;;4941086;28;20027;-74
2023/12/30 06:28:43;;;;;;;10.90;1.95;;;8.00;99.90;;;;;;4941264;28;20495;-74
2023/12/30 06:31:08;;;;;;;10.50;1.75;;;8.00;99.90;;;;;;4949676;28;20019;-74
2023/12/30 06:33:34;;;;;;;9.25;1.67;;;8.10;99.90;;;;;;4948965;28;20030;-74
2023/12/30 06:36:00;;;;;;;11.18;1.70;;;8.10;99.90;;;;;;4948786;28;20069;-74
2023/12/30 06:38:25;;;;;;;8.73;2.00;;;8.10;99.90;;;;;;4949132;28;20023;-74
2023/12/30 06:40:51;;;;;;;17.42;1.70;;;8.20;99.90;;;;;;4949483;28;20077;-74
2023/12/30 06:43:16;;;;;;;14.15;2.30;;;8.20;99.90;;;;;;4948821;28;20038;-74
2023/12/30 06:45:42;;;;;;;9.45;1.80;;;8.20;99.90;;;;;;4949018;28;20094;-74
2023/12/30 06:48:08;;;;;;;11.50;1.70;;;8.30;99.90;;;;;;4949385;28;20480;-74
2023/12/30 06:50:34;;;;;;;11.05;1.55;;;8.30;99.90;;;;;;4948930;28;20399;-74
2023/12/30 06:52:59;;;;;;;7.25;1.67;;;8.40;99.90;;;;;;4948909;28;20027;-74
2023/12/30 06:55:25;;;;;;;11.20;1.75;;;8.40;99.90;;;;;;4951270;28;20023;-74
2023/12/30 06:57:50;;;;;;;11.80;1.83;;;8.40;99.90;;;;;;4951661;28;20476;-74
2023/12/30 07:00:16;;;;;;;5.10;1.40;;;8.40;99.90;;;;;;4952293;28;20110;-74
2023/12/30 07:02:42;;;;;;;12.20;1.70;;;8.40;99.90;;;;;;4952449;28;20026;-74
2023/12/30 07:05:08;;;;;;;11.15;1.80;;;8.40;99.90;;;;;;4952033;28;20030;-74
2023/12/30 07:07:34;;;;;;;8.77;2.00;;;8.30;99.90;;;;;;4951899;28;20426;-74
2023/12/30 07:10:00;;;;;;;9.95;1.70;;;8.30;99.90;;;;;;4951737;29;20031;-74
2023/12/30 07:12:26;;;;;;;9.25;1.60;;;8.30;99.90;;;;;;4951717;28;20015;-74
2023/12/30 07:14:52;;;;;;;7.72;1.42;;;8.30;99.90;;;;;;4951361;29;20120;-74
2023/12/30 07:17:17;;;;;;;7.30;1.42;;;8.20;99.90;;;;;;4951646;28;20078;-74
2023/12/30 07:19:43;;;;;;;12.60;1.80;;;8.20;99.90;;;;;;4951976;28;20420;-74
2023/12/30 07:22:08;;;;;;;10.40;1.48;;;8.10;99.90;;;;;;4951761;28;20396;-74
2023/12/30 07:24:34;;;;;;;10.18;1.48;;;8.10;99.90;;;;;;4952316;28;20027;-74
2023/12/30 07:27:00;;;;;;;10.13;2.30;;;8.00;99.90;;;;;;4951213;28;20549;-74
2023/12/30 07:29:25;;;;;;;12.65;1.90;;;8.00;99.90;;;;;;5018336;28;20031;-74
2023/12/30 07:31:51;;;;;;;12.25;1.65;;;7.90;99.90;;;;;;4951240;29;20031;-74
2023/12/30 07:34:20;;;;;;;9.38;1.85;;;7.90;99.90;;;;;;4951034;28;20365;-74
2023/12/30 07:36:46;;;;;;;11.27;1.58;;;7.80;99.90;;;;;;4947823;28;20115;-74
2023/12/30 07:39:13;;;;;;;12.18;1.73;;;7.80;99.90;;;;;;4952660;28;20106;-74
2023/12/30 07:41:38;;;;;;;9.57;1.92;;;7.80;99.90;;;;;;4951548;28;20138;-74
2023/12/30 07:44:04;;;;;;;10.30;1.98;;;7.70;99.90;;;;;;4950371;28;20102;-74
2023/12/30 07:46:30;;;;;;;8.90;1.80;;;7.70;99.90;;;;;;4951837;28;20020;-74
2023/12/30 07:48:55;;;;;;;12.95;2.00;;;7.60;99.90;;;;;;4947172;28;20078;-74
2023/12/30 07:51:21;;;;;;;16.05;2.08;;;7.60;99.90;;;;;;4950152;28;20016;-74
2023/12/30 07:53:47;;;;;;;16.35;2.17;;;7.60;99.90;;;;;;4950478;29;20027;-74
2023/12/30 07:56:12;;;;;;;16.40;1.75;;;7.60;99.90;;;;;;4943982;28;20502;-74
2023/12/30 07:58:39;;;;;;;19.17;2.25;;;7.60;99.90;;;;;;5007710;28;20047;-74
2023/12/30 08:01:05;;;;;;;11.95;2.00;;;7.60;99.90;;;;;;4944853;29;20028;-74
2023/12/30 08:03:31;;;;;;;11.73;1.92;;;7.50;99.90;;;;;;4947244;29;20505;-74
2023/12/30 08:05:57;;;;;;;17.63;2.10;;;7.60;99.90;;;;;;4949085;28;20184;-74
2023/12/30 08:08:22;;;;;;;17.85;2.45;;;7.60;99.90;;;;;;4936307;29;20023;-74
2023/12/30 08:10:48;;;;;;;13.57;2.03;;;7.60;99.90;;;;;;4940565;28;20047;-74
2023/12/30 08:13:16;;;;;;;17.85;2.33;;;7.60;99.90;;;;;;4935114;28;20024;-74
2023/12/30 08:15:41;;;;;;;20.98;2.70;;;7.60;99.90;;;;;;4946721;28;20442;-74
2023/12/30 08:18:07;;;;;;;17.70;2.42;;;7.60;99.90;;;;;;4942807;28;20035;-74
2023/12/30 08:20:32;;;;;;;17.92;2.40;;;7.60;99.90;;;;;;4949645;28;20028;-74
2023/12/30 08:22:58;;;;;;;21.88;2.58;;;7.60;99.90;;;;;;4944478;28;20445;-74
2023/12/30 08:25:24;;;;;;;15.85;2.80;;;7.60;99.90;;;;;;4936016;28;20094;-74
2023/12/30 08:27:49;;;;;;;15.18;2.60;;;7.60;99.90;;;;;;4935860;28;20440;-74
2023/12/30 08:30:17;;;;;;;15.02;2.40;;;7.60;99.90;;;;;;4950914;28;20507;-74
2023/12/30 08:32:43;;;;;;;22.58;2.85;;;7.60;99.90;;;;;;4950218;28;20027;-74
2023/12/30 08:35:10;;;;;;;17.63;2.78;;;7.70;99.90;;;;;;4950284;28;20419;-74
2023/12/30 08:37:36;;;;;;;11.90;1.92;;;7.70;99.90;;;;;;4945809;28;20066;-74
2023/12/30 08:40:06;;;;;;;16.02;2.55;;;7.70;99.90;;;;;;4938056;28;20019;-74
2023/12/30 08:42:34;;;;;;;14.75;2.50;;;7.70;99.90;;;;;;4946316;28;20024;-74
2023/12/30 08:45:01;;;;;;;19.52;2.60;;;7.80;99.90;;;;;;4950452;29;20031;-74
2023/12/30 08:47:32;;;;;;;17.05;2.53;;;7.80;99.90;;;;;;4950004;28;20506;-74
2023/12/30 08:50:00;;;;;;;13.07;2.50;;;7.80;99.90;;;;;;4944080;28;20035;-74
2023/12/30 08:52:29;;;;;;;20.05;3.03;;;7.80;99.90;;;;;;4947390;29;20058;-74
2023/12/30 08:54:55;;;;;;;19.50;2.72;;;7.90;99.90;;;;;;4944684;28;20392;-73
2023/12/30 08:57:21;;;;;;;12.13;2.63;;;7.90;99.90;;;;;;4951101;28;20031;-73
2023/12/30 08:59:48;;;;;;;14.23;2.60;;;7.90;99.90;;;;;;4944991;28;20097;-73
2023/12/30 09:02:13;;;;;;;16.63;2.90;;;7.90;99.90;;;;;;4946059;28;20037;-73
2023/12/30 09:04:39;;;;;;;16.60;2.70;;;8.00;99.90;;;;;;4950158;28;20019;-73
2023/12/30 09:07:05;;;;;;;19.65;3.10;;;8.00;99.90;;;;;;4949511;28;20024;-73
2023/12/30 09:09:30;;;;;;;23.83;3.70;;;8.00;99.90;;;;;;4949953;28;20034;-73
2023/12/30 09:11:56;;;;;;;18.40;2.92;;;8.00;99.90;;;;;;4948657;28;20080;-73
2023/12/30 09:14:23;;;;;;;14.18;2.50;;;8.00;99.90;;;;;;4937557;28;20072;-74
2023/12/30 09:16:48;;;;;;;17.80;2.80;;;8.10;99.90;;;;;;5025898;28;20082;-73
2023/12/30 09:19:14;;;;;;;20.42;3.42;;;8.10;99.90;;;;;;4943593;28;20023;-73
2023/12/30 09:21:40;;;;;;;22.42;4.05;;;8.10;99.90;;;;;;4941272;28;20385;-73
2023/12/30 09:24:06;;;;;;;15.77;3.00;;;8.10;99.90;;;;;;4945963;28;20031;-73
2023/12/30 09:26:32;;;;;;;14.68;3.00;;;8.10;99.90;;;;;;4949895;28;20030;-73
2023/12/30 09:28:58;;;;;;;21.63;2.85;;;8.10;99.90;;;;;;4949587;28;20027;-73
2023/12/30 09:31:27;;;;;;;18.42;2.30;;;8.10;99.90;;;;;;4949518;28;20051;-74
2023/12/30 09:33:55;;;;;;;21.27;2.83;;;8.10;99.90;;;;;;5031184;28;20026;-75
2023/12/30 09:36:21;;;;;;;17.00;3.08;;;8.10;99.90;;;;;;4950820;29;20079;-74
2023/12/30 09:38:47;;;;;;;18.45;2.80;;;8.20;99.90;;;;;;4947686;29;20428;-73
2023/12/30 09:41:14;;;;;;;20.65;3.38;;;8.20;99.90;;;;;;5005638;28;20032;-74
2023/12/30 09:43:41;;;;;;;14.95;2.65;;;8.20;99.90;;;;;;4945279;28;20031;-74
2023/12/30 09:46:08;;;;;;;23.35;3.03;;;8.20;99.90;;;;;;4945178;28;20047;-74
2023/12/30 09:48:35;;;;;;;19.67;2.95;;;8.30;99.90;;;;;;4946939;28;21528;-74
2023/12/30 09:51:08;;;;;;;20.65;3.22;;;8.30;99.90;;;;;;4944978;29;20328;-75
2023/12/30 09:53:34;;;;;;;23.67;2.97;;;8.30;99.90;;;;;;4948221;29;20114;-73
2023/12/30 09:56:03;;;;;;;18.30;3.20;;;8.40;99.90;;;;;;4947456;28;20141;-75
2023/12/30 09:58:30;;;;;;;16.77;2.90;;;8.40;99.90;;;;;;4959629;28;20037;-73
2023/12/30 10:00:59;;;;;;;21.33;3.00;;;8.40;99.90;;;;;;4948531;28;20454;-74
2023/12/30 10:03:25;;;;;;;22.15;3.65;;;8.50;99.90;;;;;;4944279;28;20084;-73
2023/12/30 10:05:54;;;;;;;16.95;2.70;;;8.50;99.90;;;;;;4948468;28;20069;-74
2023/12/30 10:08:21;;;;;;;27.40;3.03;;;8.50;99.90;;;;;;5012919;28;20316;-73
2023/12/30 10:10:51;;;;;;;20.23;3.13;;;8.50;99.90;;;;;;4947685;28;20023;-73
2023/12/30 10:13:26;;;;;;;17.38;3.30;;;8.60;99.90;;;;;;4948932;28;20035;-74
2023/12/30 10:15:57;;;;;;;25.13;3.15;;;8.60;99.90;;;;;;4946871;28;20483;-75
2023/12/30 10:18:23;;;;;;;17.48;3.13;;;8.60;99.90;;;;;;4947058;29;20122;-75
2023/12/30 10:20:51;;;;;;;19.10;3.08;;;8.70;99.90;;;;;;4947685;28;20055;-74
2023/12/30 10:23:17;;;;;;;25.15;2.83;;;8.70;99.90;;;;;;5011253;28;20024;-74
2023/12/30 10:25:42;;;;;;;22.33;3.28;;;8.70;99.90;;;;;;5013222;28;20109;-75
2023/12/30 10:28:09;;;;;;;26.10;3.47;;;8.70;99.90;;;;;;4947992;28;20098;-74
2023/12/30 10:30:35;;;;;;;22.42;3.47;;;8.80;99.90;;;;;;4946881;28;20470;-75
2023/12/30 10:33:07;;;;;;;20.75;3.13;;;8.80;99.90;;;;;;4946418;28;20102;-75
2023/12/30 10:35:34;;;;;;;21.13;3.15;;;8.90;99.90;;;;;;4943220;28;20081;-75
2023/12/30 10:38:03;;;;;;;22.45;3.38;;;8.90;99.90;;;;;;4946006;28;20027;-74
2023/12/30 10:40:29;;;;;;;17.48;3.05;;;9.00;99.90;;;;;;4942256;28;20035;-73
2023/12/30 10:42:54;;;;;;;26.08;3.10;;;9.00;99.90;;;;;;4944056;28;20387;-73
2023/12/30 10:45:20;;;;;;;22.40;3.15;;;9.00;99.90;;;;;;4940286;28;20030;-73
2023/12/30 10:47:49;;;;;;;26.00;3.42;;;9.10;99.90;;;;;;4946826;28;20038;-73
2023/12/30 10:50:15;;;;;;;21.25;3.38;;;9.10;99.90;;;;;;5023081;28;20034;-73
2023/12/30 10:53:01;;;;;;;25.92;3.70;;;9.10;99.90;;;;;;4942728;28;20091;-73
2023/12/30 10:55:31;;;;;;;21.88;3.35;;;9.20;99.90;;;;;;4948589;28;20051;-73
2023/12/30 10:58:03;;;;;;;21.27;4.10;;;9.20;99.90;;;;;;4947851;28;20038;-74
2023/12/30 11:00:36;;;;;;;27.00;4.55;;;9.20;99.90;;;;;;4941061;28;20406;-74
2023/12/30 11:03:03;;;;;;;24.50;4.18;;;9.30;99.90;;;;;;4939260;28;20612;-75
2023/12/30 11:06:09;;;;;;;20.48;4.10;;;9.30;99.90;;;;;;4940536;28;20036;-75
2023/12/30 11:08:36;;;;;;;28.45;4.93;;;9.30;99.90;;;;;;4938423;29;20058;-75
2023/12/30 11:11:03;;;;;;;23.92;5.25;;;9.40;99.90;;;;;;4946760;28;20085;-73
2023/12/30 11:13:37;;;;;;;25.63;5.93;;;9.40;99.90;;;;;;5028476;28;20023;-73
2023/12/30 11:16:15;;;;;;;19.63;5.85;;;9.50;99.90;;;;;;4941472;28;20395;-73
2023/12/30 11:18:45;;;;;;;25.77;5.60;;;9.50;99.90;;;;;;4943970;28;20020;-73
2023/12/30 11:21:11;;;;;;;25.98;7.50;;;9.60;99.90;;;;;;4945498;29;20024;-73
2023/12/30 11:23:37;;;;;;;36.50;8.10;;;9.60;99.90;;;;;;4946857;28;20019;-73
2023/12/30 11:26:04;;;;;;;29.27;8.13;;;9.60;99.90;;;;;;4939946;28;20388;-73
2023/12/30 11:28:34;;;;;;;30.13;7.28;;;9.70;99.90;;;;;;4948647;29;20081;-73
2023/12/30 11:31:00;;;;;;;27.33;7.20;;;9.70;99.90;;;;;;4949179;28;20773;-73
2023/12/30 11:33:27;;;;;;;32.72;7.10;;;9.70;99.90;;;;;;4948986;28;20103;-73
2023/12/30 11:35:56;;;;;;;31.08;7.72;;;9.70;99.90;;;;;;4947935;28;20019;-73
2023/12/30 11:38:24;;;;;;;25.95;7.05;;;9.70;99.90;;;;;;4947438;28;20023;-72
2023/12/30 11:40:52;;;;;;;25.25;7.00;;;9.70;99.90;;;;;;4942995;28;20077;-73
2023/12/30 11:43:27;;;;;;;25.40;7.82;;;9.70;99.90;;;;;;5010815;28;20031;-73
2023/12/30 11:45:53;;;;;;;30.15;7.95;;;9.70;99.90;;;;;;4937426;28;20039;-73
2023/12/30 11:48:19;;;;;;;32.03;8.90;;;9.70;99.90;;;;;;4950079;28;20035;-74
2023/12/30 11:50:52;;;;;;;28.85;9.13;;;9.80;99.90;;;;;;4950692;28;20055;-74
2023/12/30 11:53:17;;;;;;;35.25;9.40;;;9.70;99.90;;;;;;4947413;28;20025;-73
2023/12/30 11:55:43;;;;;;;33.97;9.70;;;9.70;99.90;;;;;;4944875;28;20086;-74
2023/12/30 11:58:09;;;;;;;30.10;9.20;;;9.70;99.90;;;;;;4949150;28;20039;-74
2023/12/30 12:00:35;;;;;;;28.42;8.85;;;9.80;99.90;;;;;;4933626;28;20109;-74
2023/12/30 12:03:00;;;;;;;32.25;8.88;;;9.80;99.90;;;;;;4935590;28;20063;-74
2023/12/30 12:05:26;;;;;;;33.13;10.18;;;9.80;99.90;;;;;;4948779;28;20015;-74
2023/12/30 12:07:52;;;;;;;29.40;9.07;;;9.80;99.90;;;;;;4949339;28;20081;-74
2023/12/30 12:10:20;;;;;;;28.70;10.20;;;9.80;99.90;;;;;;4950482;28;20495;-74
2023/12/30 12:12:46;;;;;;;28.75;10.20;;;9.90;99.90;;;;;;4950420;28;20019;-74
2023/12/30 12:15:13;;;;;;;32.95;11.45;;;9.90;99.90;;;;;;4948138;29;20229;-73
2023/12/30 12:17:42;;;;;;;28.00;10.85;;;10.00;99.90;;;;;;4941364;28;20416;-74
2023/12/30 12:20:10;;;;;;;30.42;11.30;;;10.00;99.90;;;;;;4944528;28;20023;-74
2023/12/30 12:22:37;;;;;;;33.58;11.63;;;10.00;99.90;;;;;;5012341;28;20106;-74
2023/12/30 12:25:02;;;;;;;35.47;11.38;;;10.00;99.90;;;;;;4947670;28;20027;-74
2023/12/30 12:27:30;;;;;;;36.10;11.52;;;10.00;99.90;;;;;;4947762;28;20085;-74
2023/12/30 12:29:56;;;;;;;29.45;11.23;;;10.00;99.90;;;;;;4948817;28;20034;-73
2023/12/30 12:32:23;;;;;;;32.78;11.85;;;9.90;99.90;;;;;;4943847;28;20023;-73
2023/12/30 12:34:49;;;;;;;32.67;11.25;;;9.90;99.90;;;;;;4946988;28;20863;-73
2023/12/30 12:37:15;;;;;;;37.50;11.65;;;9.90;99.90;;;;;;4947437;28;20027;-73
2023/12/30 12:39:42;;;;;;;31.45;10.02;;;9.90;99.90;;;;;;4948700;28;20034;-73
2023/12/30 12:42:08;;;;;;;31.17;9.38;;;9.90;99.90;;;;;;4949701;28;20016;-73
2023/12/30 12:44:34;;;;;;;27.23;9.70;;;9.80;99.90;;;;;;4949598;29;20638;-73